DeltaStock - Global Forex and CFD Broker

Open a Live Account
Open a FREE Demo Account

Market Stats

Available on the:

How to open a demo account

Open a free demo with €10 000

Connect with:
Facebook Google




1 day

1 week

1 month

3 months

6 months

1 year

5 years


CFDs on:
Country:
Sector:
GAINERS LOSERS
ChartSymbolInstrumentTrading HoursOpenCloseChange (%)
ChartNIPPON-SS/JPNippon Steel & Sumitomo Metal Corp02:00-08:00255826854,96
ChartASML/hASML Holding NV10:00-18:30107,541112,1984,33
ChartLAD/uLadbrokes Coral Group PLC10:00-18:301,24291,28163,11
ChartTOSHIBA/JPToshiba Corp02:00-08:002782862,88
ChartSUMCO/JPSumco Corp02:00-08:00154215701,82
ChartHONDA/JPHonda Motor CO LTD02:00-08:00335134021,52
ChartAXPAmerican Express Co16:30-22:5975,5976,631,38
ChartINF/uInforma PLC10:00-18:306,78896,86991,19
ChartAGFB/bAgfa-Gevaert NV10:00-18:303,6593,71,12
ChartEDIN/uEdinburgh Investment Trust PLC10:00-18:306,95627,03211,09
ChartBP/itBanco BPM SPA10:00-18:242,7722,8021,08
ChartHSB/fHSBC Holdings PLC10:00-18:297,67577,75621,05
ChartIMB/u Imperial Brands PLC10:00-18:3035,2435,60411,03
ChartINTU/uIntu Properties PLC10:00-18:302,82322,85241,03
ChartBATS/uBritish American Tobacco PLC10:00-18:3045,680446,14661,02
ChartSPM/itSaipem SpA10:00-18:240,4940,4991,01
ChartHSBA/uHSBC Holdings PLC10:00-18:306,6726,73871
ChartSNR/uSenior Plc10:00-18:301,9211,94010,99
ChartRWE/gRWE AG10:00-18:3012,69612,8210,98
ChartJDW/uJ D Wetherspoon PLC10:00-18:308,95219,03740,95
ChartCTY/uCity of London Investment Trust PLC10:00-18:304,02984,06760,94
ChartRNO/fRenault SA10:00-18:2984,55185,3240,91
ChartEDF/fElectricite de France SA10:00-18:299,0059,0870,91
ChartMARUI/JPMarui Group Co Ltd02:00-08:00166816830,9
ChartCAPC/uCapital & Counties Properties Plc10:00-18:302,79732,82220,89
ChartINVP/uInvestec Plc10:00-18:305,66955,71930,88
ChartTOKYO-EP/JPTokyo Electric Power Co Inc02:00-08:004534570,88
ChartIDR/esIndra Sistemas SA10:00-18:3010,66810,7620,88
ChartEBAYeBay Inc16:30-22:5930,0630,310,83
ChartGRI/uGrainger Plc10:00-18:302,34912,36870,83